createdAt,value
2022-08-09T00:01:10.706Z,6.13
2022-08-09T00:04:06.065Z,5.43
2022-08-09T00:06:30.073Z,6.77
2022-08-09T00:08:59.146Z,6.90
2022-08-09T00:11:27.834Z,6.40
2022-08-09T00:14:17.301Z,6.10
2022-08-09T00:16:49.138Z,6.13
2022-08-09T00:19:18.437Z,6.37
2022-08-09T00:21:56.539Z,5.57
2022-08-09T00:24:25.180Z,5.80
2022-08-09T00:26:54.444Z,6.67
2022-08-09T00:29:39.146Z,6.83
2022-08-09T00:32:07.974Z,5.57
2022-08-09T00:34:39.529Z,7.30
2022-08-09T00:37:13.109Z,8.87
2022-08-09T00:40:13.402Z,6.03
2022-08-09T00:44:14.088Z,6.07
2022-08-09T00:45:16.259Z,6.10
2022-08-09T00:47:43.448Z,5.53
2022-08-09T00:50:14.219Z,6.40
2022-08-09T00:52:42.232Z,6.40
2022-08-09T00:55:16.713Z,5.37
2022-08-09T00:57:59.088Z,5.90
2022-08-09T01:00:27.119Z,5.90
2022-08-09T01:03:08.745Z,5.80
2022-08-09T01:05:54.843Z,5.70
2022-08-09T01:08:49.478Z,5.67
2022-08-09T01:11:57.850Z,5.30
2022-08-09T01:14:34.103Z,6.30
2022-08-09T01:17:11.673Z,5.87
2022-08-09T01:20:02.561Z,6.80
2022-08-09T01:22:58.889Z,7.17
2022-08-09T01:26:03.922Z,6.20
2022-08-09T01:28:31.646Z,5.90
2022-08-09T01:31:03.655Z,5.63
2022-08-09T01:33:38.484Z,6.50
2022-08-09T01:36:11.223Z,5.93
2022-08-09T01:38:44.260Z,6.30
2022-08-09T01:41:28.614Z,6.80
2022-08-09T01:43:58.918Z,6.23
2022-08-09T01:46:29.886Z,6.53
2022-08-09T01:49:14.538Z,6.23
2022-08-09T01:51:54.007Z,6.20
2022-08-09T01:54:25.931Z,6.13
2022-08-09T01:56:54.878Z,6.00
2022-08-09T01:59:24.335Z,6.27
2022-08-09T02:02:00.248Z,6.50
2022-08-09T02:04:30.008Z,6.20
2022-08-09T02:08:34.774Z,5.83
2022-08-09T02:10:29.800Z,7.80
2022-08-09T02:13:01.025Z,6.20
2022-08-09T02:15:48.736Z,5.67
2022-08-09T02:18:20.552Z,5.33
2022-08-09T02:21:03.609Z,7.00
2022-08-09T02:23:42.730Z,6.20
2022-08-09T02:26:26.753Z,6.37
2022-08-09T02:28:59.526Z,5.93
2022-08-09T02:31:35.549Z,6.60
2022-08-09T02:34:13.642Z,5.60
2022-08-09T02:36:56.960Z,6.63
2022-08-09T02:39:39.705Z,7.70
2022-08-09T02:42:16.657Z,6.50
2022-08-09T02:44:52.574Z,6.00
2022-08-09T02:47:22.237Z,6.27
2022-08-09T02:50:09.638Z,6.27
2022-08-09T02:52:49.650Z,5.80
2022-08-09T02:55:39.342Z,7.00
2022-08-09T02:58:36.181Z,6.30
2022-08-09T03:01:08.202Z,6.23
2022-08-09T03:04:17.352Z,5.87
2022-08-09T03:06:28.010Z,6.70
2022-08-09T03:08:57.625Z,7.10
2022-08-09T03:11:30.163Z,6.10
2022-08-09T03:14:13.541Z,6.07
2022-08-09T03:16:45.017Z,6.27
2022-08-09T03:19:14.553Z,6.20
2022-08-09T03:22:03.123Z,6.67
2022-08-09T03:24:31.685Z,6.57
2022-08-09T03:27:10.872Z,6.20
2022-08-09T03:29:43.242Z,6.63
2022-08-09T03:32:29.259Z,6.37
2022-08-09T03:34:56.444Z,5.97
2022-08-09T03:37:55.213Z,7.10
2022-08-09T03:40:13.216Z,6.23
2022-08-09T03:42:42.987Z,6.63
2022-08-09T03:45:10.889Z,6.33
2022-08-09T03:47:40.255Z,7.47
2022-08-09T03:50:12.303Z,6.73
2022-08-09T03:52:42.457Z,8.10
2022-08-09T03:55:14.316Z,6.80
2022-08-09T03:57:44.635Z,7.30
2022-08-09T04:00:20.973Z,7.13
2022-08-09T04:02:52.761Z,7.37
2022-08-09T04:05:27.414Z,7.20
2022-08-09T04:07:57.175Z,9.30
2022-08-09T04:10:29.258Z,8.00
2022-08-09T04:13:01.365Z,8.37
2022-08-09T04:15:52.066Z,7.37
2022-08-09T04:18:19.440Z,7.40
2022-08-09T04:20:49.074Z,7.20
2022-08-09T04:23:16.914Z,7.00
2022-08-09T04:25:44.989Z,7.87
2022-08-09T04:28:31.879Z,8.53
2022-08-09T04:31:08.253Z,7.37
2022-08-09T04:33:51.776Z,7.40
2022-08-09T04:36:25.508Z,6.60
2022-08-09T04:39:00.346Z,6.90
2022-08-09T04:41:32.792Z,6.40
2022-08-09T04:44:06.887Z,6.83
2022-08-09T04:46:58.137Z,6.53
2022-08-09T04:49:40.473Z,6.47
2022-08-09T04:52:11.980Z,6.60
2022-08-09T04:54:45.657Z,6.73
2022-08-09T04:57:12.456Z,6.70
2022-08-09T04:59:39.308Z,7.33
2022-08-09T05:02:06.550Z,6.23
2022-08-09T05:04:33.627Z,8.23
2022-08-09T05:07:00.543Z,6.73
2022-08-09T05:09:42.160Z,7.07
2022-08-09T05:12:16.354Z,7.30
2022-08-09T05:14:43.159Z,7.20
2022-08-09T05:17:15.285Z,7.30
2022-08-09T05:19:58.050Z,7.23
2022-08-09T05:22:33.580Z,7.97
2022-08-09T05:25:15.070Z,7.50
2022-08-09T05:27:46.617Z,6.60
2022-08-09T05:30:17.557Z,7.27
2022-08-09T05:32:45.501Z,7.90
2022-08-09T05:35:18.214Z,9.03
2022-08-09T05:37:47.674Z,8.30
2022-08-09T05:40:15.426Z,6.87
2022-08-09T05:42:42.989Z,7.90
2022-08-09T05:45:10.967Z,8.70
2022-08-09T05:47:51.669Z,6.60
2022-08-09T05:50:31.908Z,8.30
2022-08-09T05:53:02.154Z,7.80
2022-08-09T05:55:29.011Z,6.37
2022-08-09T05:57:58.549Z,6.13
2022-08-09T06:00:32.949Z,6.17
2022-08-09T06:03:02.389Z,6.00
2022-08-09T06:05:54.782Z,6.03
2022-08-09T06:08:24.426Z,13.90
2022-08-09T06:10:55.936Z,6.40
2022-08-09T06:13:23.860Z,5.70
2022-08-09T06:15:52.263Z,5.90
2022-08-09T06:18:25.315Z,6.23
2022-08-09T06:20:57.803Z,4.87
2022-08-09T06:23:57.207Z,5.23
2022-08-09T06:26:20.587Z,5.57
2022-08-09T06:29:00.505Z,6.63
2022-08-09T06:31:40.538Z,9.20
2022-08-09T06:34:19.446Z,5.20
2022-08-09T06:36:46.206Z,5.37
2022-08-09T06:39:13.560Z,5.20
2022-08-09T06:42:08.773Z,4.80
2022-08-09T06:44:28.381Z,5.70
2022-08-09T06:46:55.717Z,5.57
2022-08-09T06:49:44.541Z,4.80
2022-08-09T06:52:11.988Z,4.60
2022-08-09T06:54:39.026Z,5.90
2022-08-09T06:57:08.430Z,5.53
2022-08-09T07:00:51.171Z,5.20
2022-08-09T07:02:22.266Z,4.20
2022-08-09T07:04:57.991Z,5.50
2022-08-09T07:07:59.727Z,4.90
2022-08-09T07:10:24.418Z,3.77
2022-08-09T07:12:57.485Z,4.83
2022-08-09T07:16:38.829Z,3.87
2022-08-09T07:18:11.795Z,5.40
2022-08-09T07:20:43.702Z,4.27
2022-08-09T07:23:18.744Z,4.40
2022-08-09T07:25:52.187Z,3.80
2022-08-09T07:28:28.049Z,4.33
2022-08-09T07:30:55.407Z,3.77
2022-08-09T07:33:22.285Z,3.77
2022-08-09T07:35:53.630Z,3.93
2022-08-09T07:38:23.415Z,3.80
2022-08-09T07:41:00.947Z,4.43
2022-08-09T07:43:41.294Z,3.30
2022-08-09T07:46:19.519Z,5.53
2022-08-09T07:48:46.699Z,4.77
2022-08-09T07:52:04.507Z,3.73
2022-08-09T07:54:12.787Z,3.10
2022-08-09T07:56:48.806Z,3.00
2022-08-09T07:59:34.049Z,3.57
2022-08-09T08:02:05.032Z,4.20
2022-08-09T08:04:32.966Z,3.73
2022-08-09T08:07:15.488Z,3.50
2022-08-09T08:09:54.821Z,4.17
2022-08-09T08:12:29.254Z,5.53
2022-08-09T08:14:56.911Z,3.03
2022-08-09T08:17:35.412Z,5.13
2022-08-09T08:20:12.854Z,3.90
2022-08-09T08:22:40.955Z,4.20
2022-08-09T08:25:13.854Z,3.63
2022-08-09T08:27:43.146Z,5.23
2022-08-09T08:30:13.704Z,4.47
2022-08-09T08:32:52.887Z,3.53
2022-08-09T08:35:22.493Z,2.67
2022-08-09T08:37:59.425Z,3.23
2022-08-09T08:40:29.531Z,5.93
2022-08-09T08:42:58.902Z,4.80
2022-08-09T08:46:04.045Z,3.00
2022-08-09T08:48:51.551Z,2.87
2022-08-09T08:51:20.628Z,2.40
2022-08-09T08:54:04.334Z,3.80
2022-08-09T08:56:35.823Z,2.03
2022-08-09T08:59:19.734Z,2.70
2022-08-09T09:01:53.181Z,3.10
2022-08-09T09:04:41.267Z,3.80
2022-08-09T09:07:15.410Z,2.63
2022-08-09T09:09:59.549Z,4.13
2022-08-09T09:12:33.984Z,3.53
2022-08-09T09:15:03.686Z,2.33
2022-08-09T09:17:49.609Z,2.50
2022-08-09T09:20:21.395Z,2.37
2022-08-09T09:22:51.714Z,3.33
2022-08-09T09:26:02.256Z,2.53
2022-08-09T09:29:01.886Z,2.63
2022-08-09T09:32:04.600Z,2.30
2022-08-09T09:34:14.689Z,3.80
2022-08-09T09:36:51.168Z,2.67
2022-08-09T09:39:42.761Z,2.40
2022-08-09T09:42:27.741Z,2.23
2022-08-09T09:44:59.391Z,2.37
2022-08-09T09:47:28.562Z,2.43
2022-08-09T09:50:13.781Z,2.17
2022-08-09T09:52:54.709Z,3.17
2022-08-09T09:55:31.405Z,2.50
2022-08-09T09:58:18.251Z,2.80
2022-08-09T10:00:55.527Z,4.63
2022-08-09T10:03:57.239Z,2.90
2022-08-09T10:06:37.842Z,2.70
2022-08-09T10:09:23.397Z,2.30
2022-08-09T10:12:26.942Z,2.97
2022-08-09T10:14:51.318Z,3.40
2022-08-09T10:17:40.241Z,2.10
2022-08-09T10:20:17.446Z,2.30
2022-08-09T10:23:00.432Z,4.00
2022-08-09T10:25:34.856Z,2.30
2022-08-09T10:28:14.941Z,3.33
2022-08-09T10:32:20.985Z,1.90
2022-08-09T10:34:09.005Z,1.80
2022-08-09T10:36:21.872Z,2.03
2022-08-09T10:38:56.280Z,2.73
2022-08-09T10:41:24.478Z,2.20
2022-08-09T10:44:01.368Z,3.20
2022-08-09T10:46:54.268Z,2.47
2022-08-09T10:49:50.746Z,5.00
2022-08-09T10:52:51.733Z,3.93
2022-08-09T10:55:28.113Z,2.33
2022-08-09T10:58:00.303Z,2.40
2022-08-09T11:01:03.149Z,1.80
2022-08-09T11:03:53.176Z,2.00
2022-08-09T11:06:24.114Z,3.17
2022-08-09T11:08:53.482Z,2.90
2022-08-09T11:11:21.908Z,2.10
2022-08-09T11:14:28.549Z,2.27
2022-08-09T11:16:57.169Z,2.50
2022-08-09T11:20:22.330Z,2.50
2022-08-09T11:22:57.198Z,4.93
2022-08-09T11:25:36.221Z,2.20
2022-08-09T11:28:33.928Z,1.70
2022-08-09T11:31:03.043Z,2.20
2022-08-09T11:33:43.029Z,2.90
2022-08-09T11:36:12.390Z,2.03
2022-08-09T11:39:02.204Z,1.93
2022-08-09T11:41:38.234Z,2.03
2022-08-09T11:44:08.261Z,2.00
2022-08-09T11:46:56.959Z,1.90
2022-08-09T11:50:56.581Z,11.17
2022-08-09T11:53:59.695Z,2.93
2022-08-09T11:56:02.950Z,3.00
2022-08-09T11:58:33.169Z,2.23
2022-08-09T12:01:37.610Z,2.37
2022-08-09T12:04:03.577Z,2.17
2022-08-09T12:06:35.240Z,7.20
2022-08-09T12:09:19.099Z,1.80
2022-08-09T12:12:05.821Z,2.77
2022-08-09T12:14:58.948Z,2.70
2022-08-09T12:17:27.916Z,1.80
2022-08-09T12:20:16.749Z,4.20
2022-08-09T12:22:47.333Z,5.43
2022-08-09T12:25:37.402Z,2.33
2022-08-09T12:29:10.891Z,2.43
2022-08-09T12:31:11.218Z,4.00
2022-08-09T12:34:01.123Z,2.40
2022-08-09T12:36:32.143Z,2.73
2022-08-09T12:39:00.577Z,2.63
2022-08-09T12:41:38.913Z,2.20
2022-08-09T12:44:09.842Z,4.37
2022-08-09T12:46:39.561Z,2.37
2022-08-09T12:49:08.745Z,6.30
2022-08-09T12:51:59.884Z,2.90
2022-08-09T12:54:22.633Z,2.67
2022-08-09T12:56:54.179Z,2.40
2022-08-09T12:59:24.637Z,2.07
2022-08-09T13:02:09.552Z,1.90
2022-08-09T13:04:38.840Z,1.87
2022-08-09T13:07:14.385Z,4.57
2022-08-09T13:09:52.835Z,2.40
2022-08-09T13:12:27.067Z,2.43
2022-08-09T13:15:07.355Z,2.30
2022-08-09T13:18:03.671Z,1.90
2022-08-09T13:20:37.871Z,2.13
2022-08-09T13:24:16.893Z,3.10
2022-08-09T13:26:37.122Z,2.33
2022-08-09T13:29:06.456Z,2.60
2022-08-09T13:32:16.375Z,2.70
2022-08-09T13:34:21.133Z,2.60
2022-08-09T13:36:47.957Z,4.97
2022-08-09T13:41:50.415Z,1.70
2022-08-09T13:42:14.364Z,2.20
2022-08-09T13:44:43.691Z,2.33
2022-08-09T13:47:29.477Z,3.37
2022-08-09T13:50:12.508Z,5.73
2022-08-09T13:52:45.325Z,2.20
2022-08-09T13:55:15.649Z,4.10
2022-08-09T13:57:56.224Z,3.50
2022-08-09T14:00:27.272Z,2.53
2022-08-09T14:03:04.905Z,3.07
2022-08-09T14:05:58.390Z,2.20
2022-08-09T14:08:29.777Z,3.03
2022-08-09T14:11:00.215Z,3.70
2022-08-09T14:14:23.294Z,2.60
2022-08-09T14:16:18.327Z,2.67
2022-08-09T14:18:50.247Z,2.13
2022-08-09T14:21:22.355Z,2.07
2022-08-09T14:23:55.497Z,1.90
2022-08-09T14:26:33.904Z,2.57
2022-08-09T14:29:08.276Z,3.07
2022-08-09T14:31:53.681Z,2.17
2022-08-09T14:34:31.354Z,2.40
2022-08-09T14:37:06.885Z,3.97
2022-08-09T14:39:45.421Z,2.70
2022-08-09T14:42:31.928Z,1.70
2022-08-09T14:46:46.334Z,4.93
2022-08-09T14:47:57.966Z,5.43
2022-08-09T14:50:27.740Z,3.73
2022-08-09T14:52:54.651Z,3.30
2022-08-09T14:55:21.640Z,4.23
2022-08-09T14:57:49.409Z,2.40
2022-08-09T15:00:17.430Z,5.20
2022-08-09T15:02:47.741Z,1.80
2022-08-09T15:05:19.121Z,2.43
2022-08-09T15:07:55.964Z,2.13
2022-08-09T15:10:25.531Z,2.47
2022-08-09T15:13:03.412Z,3.17
2022-08-09T15:15:34.378Z,2.23
2022-08-09T15:18:07.615Z,4.90
2022-08-09T15:21:57.068Z,2.80
2022-08-09T15:24:02.029Z,2.13
2022-08-09T15:26:18.518Z,2.83
2022-08-09T15:28:54.911Z,3.43
2022-08-09T15:31:22.257Z,3.23
2022-08-09T15:34:18.190Z,2.80
2022-08-09T15:36:48.155Z,2.20
2022-08-09T15:39:17.125Z,2.60
2022-08-09T15:41:49.868Z,1.80
2022-08-09T15:44:19.831Z,3.30
2022-08-09T15:46:49.799Z,1.60
2022-08-09T15:49:21.792Z,5.20
2022-08-09T15:52:03.876Z,3.27
2022-08-09T15:54:48.875Z,1.93
2022-08-09T15:57:33.729Z,2.43
2022-08-09T16:00:00.742Z,2.57
2022-08-09T16:02:27.535Z,1.93
2022-08-09T16:04:54.504Z,3.37
2022-08-09T16:07:21.278Z,3.93
2022-08-09T16:09:57.977Z,1.97
2022-08-09T16:12:41.493Z,2.57
2022-08-09T16:16:11.853Z,2.20
2022-08-09T16:18:05.108Z,1.77
2022-08-09T16:20:31.981Z,2.47
2022-08-09T16:23:01.165Z,1.80
2022-08-09T16:25:36.913Z,4.27
2022-08-09T16:28:07.362Z,3.13
2022-08-09T16:30:34.161Z,1.80
2022-08-09T16:33:10.009Z,1.60
2022-08-09T16:35:56.903Z,2.47
2022-08-09T16:38:25.348Z,5.60
2022-08-09T16:40:52.366Z,3.43
2022-08-09T16:43:21.045Z,2.10
2022-08-09T16:45:53.472Z,1.90
2022-08-09T16:48:43.399Z,2.20
2022-08-09T16:51:14.327Z,1.83
2022-08-09T16:56:34.324Z,1.70
2022-08-09T16:59:10.217Z,2.40
2022-08-09T17:01:37.554Z,3.77
2022-08-09T17:04:06.528Z,2.00
2022-08-09T17:08:41.560Z,1.67
2022-08-09T17:09:45.901Z,2.60
2022-08-09T17:12:07.935Z,1.80
2022-08-09T17:14:35.337Z,2.00
2022-08-09T17:17:04.017Z,2.10
2022-08-09T17:20:28.855Z,3.83
2022-08-09T17:22:39.227Z,2.00
2022-08-09T17:25:18.793Z,2.10
2022-08-09T17:27:49.514Z,2.37
2022-08-09T17:30:26.495Z,2.57
2022-08-09T17:32:57.553Z,2.43
2022-08-09T17:35:34.863Z,8.40
2022-08-09T17:38:14.193Z,5.73
2022-08-09T17:40:49.466Z,1.97
2022-08-09T17:43:34.291Z,4.97
2022-08-09T17:46:08.834Z,1.93
2022-08-09T17:48:51.935Z,2.10
2022-08-09T17:51:20.430Z,2.20
2022-08-09T17:53:54.554Z,3.10
2022-08-09T17:56:27.840Z,4.50
2022-08-09T17:59:03.295Z,3.03
2022-08-09T18:01:57.702Z,2.17
2022-08-09T18:04:22.738Z,3.57
2022-08-09T18:06:55.187Z,2.87
2022-08-09T18:09:25.234Z,2.53
2022-08-09T18:12:17.259Z,2.70
2022-08-09T18:14:53.390Z,3.50
2022-08-09T18:17:27.400Z,2.63
2022-08-09T18:20:54.253Z,5.80
2022-08-09T18:22:56.649Z,3.80
2022-08-09T18:25:52.632Z,2.27
2022-08-09T18:28:20.997Z,2.70
2022-08-09T18:31:00.134Z,3.87
2022-08-09T18:33:28.416Z,3.03
2022-08-09T18:36:00.131Z,3.23
2022-08-09T18:38:27.984Z,4.10
2022-08-09T18:40:55.619Z,3.00
2022-08-09T18:43:23.497Z,3.40
2022-08-09T18:46:46.811Z,3.90
2022-08-09T18:48:37.426Z,6.50
2022-08-09T18:51:04.638Z,3.90
2022-08-09T18:53:36.777Z,3.00
2022-08-09T18:56:27.048Z,3.40
2022-08-09T18:58:56.607Z,2.80
2022-08-09T19:01:24.107Z,9.23
2022-08-09T19:04:00.939Z,3.23
2022-08-09T19:06:33.687Z,2.47
2022-08-09T19:09:02.658Z,3.63
2022-08-09T19:11:38.038Z,6.83
2022-08-09T19:14:06.808Z,2.60
2022-08-09T19:16:35.983Z,4.03
2022-08-09T19:19:23.750Z,2.80
2022-08-09T19:22:04.145Z,4.27
2022-08-09T19:24:38.718Z,2.20
2022-08-09T19:27:18.141Z,3.07
2022-08-09T19:30:22.427Z,3.17
2022-08-09T19:32:33.067Z,1.87
2022-08-09T19:35:00.489Z,2.43
2022-08-09T19:37:29.050Z,3.20
2022-08-09T19:40:08.904Z,2.17
2022-08-09T19:42:35.934Z,3.43
2022-08-09T19:45:06.405Z,3.50
2022-08-09T19:47:38.141Z,3.37
2022-08-09T19:50:47.871Z,4.47
2022-08-09T19:52:52.507Z,3.27
2022-08-09T19:55:30.547Z,5.00
2022-08-09T19:58:16.100Z,3.17
2022-08-09T20:00:45.555Z,3.10
2022-08-09T20:04:17.798Z,2.50
2022-08-09T20:06:03.121Z,2.93
2022-08-09T20:08:35.253Z,3.70
2022-08-09T20:11:04.633Z,3.50
2022-08-09T20:13:36.786Z,4.20
2022-08-09T20:16:35.161Z,3.30
2022-08-09T20:19:42.197Z,7.70
2022-08-09T20:21:54.731Z,10.10
2022-08-09T20:24:29.877Z,2.87
2022-08-09T20:27:02.746Z,5.20
2022-08-09T20:29:37.976Z,8.00
2022-08-09T20:32:29.291Z,3.33
2022-08-09T20:34:58.966Z,3.07
2022-08-09T20:37:25.897Z,3.17
2022-08-09T20:40:19.041Z,3.03
2022-08-09T20:43:00.000Z,3.37
2022-08-09T20:45:59.345Z,2.83
2022-08-09T20:48:28.858Z,3.50
2022-08-09T20:50:58.017Z,2.73
2022-08-09T20:53:37.509Z,3.10
2022-08-09T20:56:19.946Z,3.30
2022-08-09T20:58:47.728Z,3.73
2022-08-09T21:01:34.217Z,7.40
2022-08-09T21:05:48.878Z,9.77
2022-08-09T21:06:51.067Z,3.80
2022-08-09T21:09:25.074Z,3.60
2022-08-09T21:14:36.999Z,2.47
2022-08-09T21:18:22.509Z,2.60
2022-08-09T21:20:19.432Z,2.43
2022-08-09T21:22:41.937Z,2.97
2022-08-09T21:25:38.031Z,2.20
2022-08-09T21:28:07.352Z,2.97
2022-08-09T21:30:40.354Z,3.07
2022-08-09T21:33:08.606Z,5.27
2022-08-09T21:35:40.833Z,4.43
2022-08-09T21:38:30.856Z,3.67
2022-08-09T21:40:59.721Z,2.97
2022-08-09T21:43:56.026Z,2.53
2022-08-09T21:46:13.649Z,2.80
2022-08-09T21:48:42.619Z,3.13
2022-08-09T21:51:30.138Z,2.20
2022-08-09T21:54:03.224Z,2.43
2022-08-09T21:56:42.948Z,2.30
2022-08-09T21:59:11.217Z,2.60
2022-08-09T22:02:01.283Z,2.63
2022-08-09T22:04:55.748Z,3.23
2022-08-09T22:07:23.468Z,2.27
2022-08-09T22:10:07.120Z,2.57
2022-08-09T22:12:34.680Z,3.00
2022-08-09T22:15:01.632Z,2.90
2022-08-09T22:17:31.941Z,2.50
2022-08-09T22:20:00.854Z,2.57
2022-08-09T22:22:30.711Z,2.63
2022-08-09T22:26:06.653Z,2.87
2022-08-09T22:27:47.476Z,2.70
2022-08-09T22:30:15.840Z,3.00
2022-08-09T22:32:53.358Z,2.53
2022-08-09T22:36:02.441Z,3.50
2022-08-09T22:38:08.001Z,4.00
2022-08-09T22:40:35.717Z,2.67
2022-08-09T22:43:08.439Z,5.93
2022-08-09T22:48:18.483Z,3.17
2022-08-09T22:48:36.535Z,2.80
2022-08-09T22:51:10.931Z,3.20
2022-08-09T22:54:01.086Z,2.70
2022-08-09T22:56:33.966Z,2.63
2022-08-09T22:59:05.991Z,3.43
2022-08-09T23:01:49.685Z,2.77
2022-08-09T23:04:16.509Z,3.33
2022-08-09T23:07:02.781Z,3.03
2022-08-09T23:09:29.808Z,3.00
2022-08-09T23:11:56.810Z,3.20
2022-08-09T23:14:37.667Z,2.90
2022-08-09T23:17:10.016Z,2.23
2022-08-09T23:20:06.167Z,3.57
2022-08-09T23:22:23.807Z,2.53
2022-08-09T23:24:50.577Z,2.47
2022-08-09T23:27:17.353Z,4.37
2022-08-09T23:29:44.177Z,3.37
2022-08-09T23:32:11.955Z,3.20
2022-08-09T23:34:38.690Z,2.87
2022-08-09T23:37:06.188Z,3.17
2022-08-09T23:39:33.112Z,3.80
2022-08-09T23:42:00.252Z,2.90
2022-08-09T23:44:27.024Z,3.97
2022-08-09T23:46:57.789Z,2.50
2022-08-09T23:49:25.829Z,4.90
2022-08-09T23:51:53.870Z,4.00
2022-08-09T23:54:21.438Z,3.57
2022-08-09T23:56:55.853Z,3.53
2022-08-09T23:59:24.305Z,2.93
